createdAt,value
2022-10-31T00:01:23.674Z,101152.81
2022-10-31T00:03:50.543Z,101152.50
2022-10-31T00:06:19.943Z,101156.28
2022-10-31T00:08:58.073Z,101158.97
2022-10-31T00:11:25.581Z,101159.41
2022-10-31T00:13:52.528Z,101159.13
2022-10-31T00:31:06.210Z,101151.50
2022-10-31T00:33:35.574Z,101162.53
2022-10-31T00:36:02.293Z,101169.75
2022-10-31T00:38:28.958Z,101165.09
2022-10-31T00:40:55.597Z,101179.19
2022-10-31T00:43:22.173Z,101175.84
2022-10-31T00:45:48.739Z,101175.00
2022-10-31T00:51:10.594Z,101176.97
2022-10-31T00:53:37.504Z,101171.84
2022-10-31T00:56:04.881Z,101172.94
2022-10-31T00:58:31.767Z,101161.97
2022-10-31T01:00:58.639Z,101170.72
2022-10-31T01:03:28.175Z,101157.88
2022-10-31T01:06:04.751Z,101168.44
2022-10-31T01:08:32.963Z,101164.25
2022-10-31T01:11:12.709Z,101167.31
2022-10-31T01:13:41.588Z,101161.34
2022-10-31T01:16:11.396Z,101159.53
2022-10-31T01:18:38.379Z,101155.16
2022-10-31T01:21:09.324Z,101153.16
2022-10-31T01:23:36.532Z,101161.97
2022-10-31T01:26:11.971Z,101168.47
2022-10-31T01:28:48.141Z,101158.00
2022-10-31T01:31:16.069Z,101146.63
2022-10-31T01:33:43.053Z,101166.28
2022-10-31T01:36:17.743Z,101176.19
2022-10-31T01:38:44.944Z,101168.56
2022-10-31T01:41:13.293Z,101176.53
2022-10-31T01:43:46.189Z,101159.47
2022-10-31T01:46:13.511Z,101157.22
2022-10-31T01:48:43.320Z,101162.94
2022-10-31T01:51:12.757Z,101164.31
2022-10-31T01:53:40.745Z,101166.38
2022-10-31T01:56:08.657Z,101169.53
2022-10-31T01:58:37.864Z,101165.94
2022-10-31T02:01:07.970Z,101156.31
2022-10-31T02:03:36.035Z,101163.97
2022-10-31T02:06:05.736Z,101165.16
2022-10-31T02:08:35.862Z,101166.69
2022-10-31T02:11:02.557Z,101171.69
2022-10-31T02:13:30.000Z,101178.22
2022-10-31T02:15:59.731Z,101190.09
2022-10-31T02:18:29.098Z,101200.66
2022-10-31T02:21:03.378Z,101207.56
2022-10-31T02:24:01.872Z,101204.13
2022-10-31T02:26:52.127Z,101210.28
2022-10-31T02:29:56.395Z,101219.13
2022-10-31T02:32:33.836Z,101211.25
2022-10-31T02:35:14.491Z,101211.91
2022-10-31T02:37:59.219Z,101226.91
2022-10-31T02:40:36.713Z,101224.72
2022-10-31T02:43:49.576Z,101225.91
2022-10-31T02:46:46.154Z,101207.38
2022-10-31T02:49:24.198Z,101206.97
2022-10-31T02:51:51.587Z,101202.63
2022-10-31T02:54:20.891Z,101195.22
2022-10-31T02:56:54.391Z,101189.09
2022-10-31T02:59:22.726Z,101186.19
2022-10-31T03:02:07.694Z,101180.13
2022-10-31T03:04:58.431Z,101184.50
2022-10-31T03:07:36.346Z,101195.06
2022-10-31T03:10:14.262Z,101184.50
2022-10-31T03:12:59.556Z,101190.13
2022-10-31T03:15:37.298Z,101189.28
2022-10-31T03:18:10.470Z,101195.88
2022-10-31T03:20:49.007Z,101201.34
2022-10-31T03:23:19.211Z,101204.91
2022-10-31T03:25:51.989Z,101213.28
2022-10-31T03:28:21.343Z,101214.66
2022-10-31T03:30:50.527Z,101200.50
2022-10-31T03:33:22.888Z,101206.16
2022-10-31T03:35:53.617Z,101194.09
2022-10-31T03:38:21.067Z,101196.31
2022-10-31T03:40:49.478Z,101183.22
2022-10-31T03:43:29.937Z,101193.38
2022-10-31T03:45:57.376Z,101200.06
2022-10-31T03:48:25.476Z,101185.81
2022-10-31T03:51:11.801Z,101181.31
2022-10-31T03:53:45.884Z,101181.84
2022-10-31T03:56:28.943Z,101189.91
2022-10-31T03:59:35.609Z,101176.81
2022-10-31T04:02:08.942Z,101185.81
2022-10-31T04:04:37.612Z,101186.47
2022-10-31T04:07:07.545Z,101195.75
2022-10-31T04:09:39.117Z,101191.91
2022-10-31T04:12:09.814Z,101191.03
2022-10-31T04:15:00.081Z,101190.75
2022-10-31T04:17:30.947Z,101192.41
2022-10-31T04:20:00.694Z,101186.16
2022-10-31T04:22:28.838Z,101184.78
2022-10-31T04:24:55.497Z,101192.84
2022-10-31T04:27:22.051Z,101186.56
2022-10-31T04:29:50.815Z,101186.03
2022-10-31T04:32:18.730Z,101195.38
2022-10-31T04:34:45.293Z,101193.50
2022-10-31T04:37:12.138Z,101198.53
2022-10-31T04:39:39.357Z,101200.72
2022-10-31T04:42:24.608Z,101207.91
2022-10-31T04:44:52.294Z,101199.22
2022-10-31T04:47:19.290Z,101214.09
2022-10-31T04:49:46.083Z,101211.28
2022-10-31T04:52:13.614Z,101218.63
2022-10-31T04:54:41.030Z,101223.84
2022-10-31T04:57:48.481Z,101216.41
2022-10-31T05:00:18.553Z,101218.94
2022-10-31T05:02:50.523Z,101218.72
2022-10-31T05:05:19.264Z,101219.28
2022-10-31T05:07:47.511Z,101218.31
2022-10-31T05:10:17.155Z,101225.00
2022-10-31T05:12:50.793Z,101231.31
2022-10-31T05:15:35.855Z,101232.03
2022-10-31T05:18:37.604Z,101241.78
2022-10-31T05:21:27.015Z,101245.88
2022-10-31T05:23:58.448Z,101234.44
2022-10-31T05:26:25.582Z,101239.81
2022-10-31T05:28:53.447Z,101243.88
2022-10-31T05:31:20.125Z,101237.28
2022-10-31T05:33:48.344Z,101243.13
2022-10-31T05:36:33.735Z,101240.72
2022-10-31T05:39:10.407Z,101238.00
2022-10-31T05:41:42.363Z,101251.63
2022-10-31T05:44:15.080Z,101255.59
2022-10-31T05:46:57.968Z,101256.91
2022-10-31T05:49:59.783Z,101258.28
2022-10-31T05:52:32.926Z,101265.56
2022-10-31T05:55:07.395Z,101260.31
2022-10-31T05:57:35.021Z,101270.25
2022-10-31T06:00:02.127Z,101276.72
2022-10-31T06:02:35.654Z,101274.34
2022-10-31T06:05:25.618Z,101275.44
2022-10-31T06:07:52.972Z,101268.00
2022-10-31T06:10:21.809Z,101267.56
2022-10-31T06:12:52.326Z,101273.59
2022-10-31T06:15:29.532Z,101276.00
2022-10-31T06:18:06.998Z,101276.88
2022-10-31T06:20:37.155Z,101279.91
2022-10-31T06:23:05.533Z,101279.81
2022-10-31T06:25:34.263Z,101281.69
2022-10-31T06:28:00.940Z,101273.81
2022-10-31T06:30:36.836Z,101286.09
2022-10-31T06:33:04.962Z,101290.66
2022-10-31T06:35:33.950Z,101286.50
2022-10-31T06:38:01.107Z,101299.59
2022-10-31T06:40:35.566Z,101292.97
2022-10-31T06:43:22.931Z,101293.16
2022-10-31T06:45:53.502Z,101294.03
2022-10-31T06:48:23.964Z,101294.91
2022-10-31T06:51:15.497Z,101299.72
2022-10-31T06:53:42.248Z,101300.25
2022-10-31T06:56:11.414Z,101300.69
2022-10-31T06:58:44.055Z,101302.34
2022-10-31T07:01:11.943Z,101298.47
2022-10-31T07:03:39.454Z,101302.56
2022-10-31T07:06:06.190Z,101294.69
2022-10-31T07:08:33.408Z,101300.47
2022-10-31T07:11:00.049Z,101302.97
2022-10-31T07:13:29.074Z,101304.44
2022-10-31T07:16:07.664Z,101303.63
2022-10-31T07:18:36.069Z,101295.84
2022-10-31T07:21:03.081Z,101303.50
2022-10-31T07:23:29.643Z,101307.06
2022-10-31T07:26:16.341Z,101315.56
2022-10-31T07:28:49.451Z,101322.91
2022-10-31T07:31:20.141Z,101325.00
2022-10-31T07:33:46.784Z,101321.03
2022-10-31T07:36:25.420Z,101328.03
2022-10-31T07:38:54.258Z,101331.19
2022-10-31T07:41:22.311Z,101325.31
2022-10-31T07:43:49.486Z,101334.75
2022-10-31T07:46:16.191Z,101327.53
2022-10-31T07:48:57.580Z,101322.88
2022-10-31T07:51:53.201Z,101323.75
2022-10-31T07:54:45.796Z,101331.19
2022-10-31T07:57:12.432Z,101319.03
2022-10-31T07:59:39.430Z,101327.28
2022-10-31T08:02:09.347Z,101332.53
2022-10-31T08:04:57.228Z,101333.69
2022-10-31T08:07:30.050Z,101336.00
2022-10-31T08:10:03.718Z,101335.38
2022-10-31T08:12:31.796Z,101344.72
2022-10-31T08:14:58.712Z,101347.13
2022-10-31T08:17:25.895Z,101354.03
2022-10-31T08:19:55.723Z,101340.22
2022-10-31T08:22:28.317Z,101348.09
2022-10-31T08:24:55.084Z,101346.50
2022-10-31T08:27:22.140Z,101341.44
2022-10-31T08:29:48.935Z,101341.03
2022-10-31T08:32:15.652Z,101342.63
2022-10-31T08:35:00.906Z,101339.47
2022-10-31T08:37:46.099Z,101345.97
2022-10-31T08:40:13.982Z,101349.41
2022-10-31T08:42:40.772Z,101344.50
2022-10-31T08:45:07.896Z,101342.28
2022-10-31T08:47:35.864Z,101343.69
2022-10-31T08:50:02.503Z,101346.75
2022-10-31T08:52:58.777Z,101342.63
2022-10-31T08:55:16.313Z,101350.66
2022-10-31T08:58:05.103Z,101348.91
2022-10-31T09:00:40.597Z,101354.97
2022-10-31T09:03:34.391Z,101364.44
2022-10-31T09:06:03.704Z,101368.22
2022-10-31T09:08:32.088Z,101368.81
2022-10-31T09:10:59.241Z,101367.06
2022-10-31T09:13:48.911Z,101372.41
2022-10-31T09:16:15.489Z,101389.06
2022-10-31T09:18:42.094Z,101390.91
2022-10-31T09:21:08.764Z,101397.31
2022-10-31T09:23:35.420Z,101390.91
2022-10-31T09:26:02.699Z,101393.28
2022-10-31T09:28:52.164Z,101398.19
2022-10-31T09:31:18.768Z,101401.00
2022-10-31T09:33:48.118Z,101409.63
2022-10-31T09:36:39.153Z,101407.19
2022-10-31T09:39:12.918Z,101401.03
2022-10-31T09:42:12.088Z,101396.84
2022-10-31T09:48:28.792Z,101406.75
2022-10-31T09:51:19.480Z,101405.63
2022-10-31T09:54:50.258Z,101412.16
2022-10-31T09:57:26.151Z,101411.41
2022-10-31T09:59:54.338Z,101412.91
2022-10-31T10:02:42.814Z,101415.34
2022-10-31T10:05:27.002Z,101418.22
2022-10-31T10:08:20.522Z,101418.06
2022-10-31T10:11:43.370Z,101416.81
2022-10-31T10:14:26.159Z,101422.91
2022-10-31T10:17:10.945Z,101424.56
2022-10-31T10:19:53.089Z,101427.38
2022-10-31T10:22:34.752Z,101419.25
2022-10-31T10:25:20.134Z,101429.44
2022-10-31T10:27:46.659Z,101425.41
2022-10-31T10:30:26.746Z,101419.75
2022-10-31T10:32:59.960Z,101419.44
2022-10-31T10:35:35.887Z,101425.34
2022-10-31T10:38:13.827Z,101424.59
2022-10-31T10:40:41.401Z,101423.75
2022-10-31T10:43:35.721Z,101414.13
2022-10-31T10:46:42.342Z,101420.81
2022-10-31T10:49:19.238Z,101417.03
2022-10-31T10:55:22.242Z,101417.50
2022-10-31T10:58:05.558Z,101411.16
2022-10-31T11:00:37.235Z,101412.47
2022-10-31T11:03:06.009Z,101415.38
2022-10-31T11:05:51.025Z,101414.78
2022-10-31T11:08:37.141Z,101420.41
2022-10-31T11:11:03.632Z,101418.84
2022-10-31T11:13:31.536Z,101421.63
2022-10-31T11:16:02.530Z,101420.44
2022-10-31T11:18:32.854Z,101418.25
2022-10-31T11:21:01.597Z,101424.38
2022-10-31T11:23:29.753Z,101421.16
2022-10-31T11:25:56.263Z,101423.50
2022-10-31T11:28:23.402Z,101419.56
2022-10-31T11:30:54.208Z,101420.75
2022-10-31T11:33:30.193Z,101418.72
2022-10-31T11:35:58.433Z,101417.78
2022-10-31T11:38:36.086Z,101418.38
2022-10-31T11:41:11.676Z,101420.06
2022-10-31T11:43:39.290Z,101420.19
2022-10-31T11:46:16.589Z,101421.44
2022-10-31T11:48:52.674Z,101422.09
2022-10-31T11:51:29.891Z,101417.94
2022-10-31T11:54:03.463Z,101419.41
2022-10-31T11:56:43.438Z,101415.19
2022-10-31T11:59:21.860Z,101426.66
2022-10-31T12:01:53.599Z,101424.22
2022-10-31T12:04:35.879Z,101421.50
2022-10-31T12:07:02.660Z,101413.66
2022-10-31T12:09:31.591Z,101414.63
2022-10-31T12:12:10.023Z,101406.16
2022-10-31T12:15:04.776Z,101402.50
2022-10-31T12:17:42.730Z,101405.09
2022-10-31T12:20:26.678Z,101409.19
2022-10-31T12:23:20.688Z,101402.72
2022-10-31T12:25:52.719Z,101402.81
2022-10-31T12:28:21.976Z,101407.63
2022-10-31T12:31:00.668Z,101410.78
2022-10-31T12:33:51.435Z,101396.94
2022-10-31T12:36:25.654Z,101399.53
2022-10-31T12:39:12.163Z,101401.06
2022-10-31T12:42:02.720Z,101401.00
2022-10-31T12:45:10.072Z,101395.66
2022-10-31T12:47:41.955Z,101392.72
2022-10-31T12:50:36.462Z,101397.44
2022-10-31T12:53:11.235Z,101398.19
2022-10-31T12:55:59.153Z,101392.13
2022-10-31T12:58:32.288Z,101385.53
2022-10-31T13:01:12.769Z,101386.53
2022-10-31T13:03:52.158Z,101377.53
2022-10-31T13:06:39.496Z,101385.66
2022-10-31T13:09:19.280Z,101389.72
2022-10-31T13:11:52.988Z,101392.84
2022-10-31T13:14:35.520Z,101390.03
2022-10-31T13:17:03.118Z,101382.88
2022-10-31T13:19:35.451Z,101388.16
2022-10-31T13:22:13.703Z,101381.63
2022-10-31T13:24:51.697Z,101382.03
2022-10-31T13:27:35.955Z,101382.50
2022-10-31T13:30:04.247Z,101381.38
2022-10-31T13:33:21.755Z,101391.53
2022-10-31T13:36:00.459Z,101387.16
2022-10-31T13:38:36.162Z,101384.34
2022-10-31T13:41:13.148Z,101388.97
2022-10-31T13:44:21.156Z,101382.97
2022-10-31T13:46:48.044Z,101385.59
2022-10-31T13:49:41.084Z,101383.28
2022-10-31T13:52:10.368Z,101382.41
2022-10-31T13:54:41.433Z,101381.81
2022-10-31T13:57:16.914Z,101383.78
2022-10-31T13:59:51.443Z,101383.72
2022-10-31T14:02:26.265Z,101379.41
2022-10-31T14:04:58.821Z,101387.16
2022-10-31T14:07:26.804Z,101386.22
2022-10-31T14:10:07.305Z,101388.56
2022-10-31T14:12:40.490Z,101387.53
2022-10-31T14:15:22.539Z,101391.28
2022-10-31T14:17:52.544Z,101399.25
2022-10-31T14:20:19.053Z,101390.44
2022-10-31T14:22:45.681Z,101390.31
2022-10-31T14:25:33.229Z,101384.78
2022-10-31T14:28:02.314Z,101392.94
2022-10-31T14:30:30.524Z,101395.06
2022-10-31T14:33:03.453Z,101382.78
2022-10-31T14:35:54.668Z,101386.66
2022-10-31T14:38:30.204Z,101385.53
2022-10-31T14:41:20.515Z,101375.00
2022-10-31T14:44:11.748Z,101370.94
2022-10-31T14:46:57.152Z,101375.66
2022-10-31T14:49:38.963Z,101385.31
2022-10-31T14:52:09.636Z,101381.94
2022-10-31T14:54:41.425Z,101387.41
2022-10-31T14:57:28.350Z,101386.88
2022-10-31T15:00:03.873Z,101382.66
2022-10-31T15:02:47.939Z,101383.09
2022-10-31T15:05:15.435Z,101381.31
2022-10-31T15:07:59.039Z,101376.81
2022-10-31T15:10:30.829Z,101382.56
2022-10-31T15:13:10.368Z,101372.28
2022-10-31T15:15:38.015Z,101375.84
2022-10-31T15:18:06.396Z,101373.03
2022-10-31T15:20:43.273Z,101373.56
2022-10-31T15:23:12.656Z,101382.91
2022-10-31T15:25:39.410Z,101374.59
2022-10-31T15:28:22.235Z,101367.38
2022-10-31T15:30:57.311Z,101371.22
2022-10-31T15:33:33.664Z,101375.53
2022-10-31T15:36:04.717Z,101373.84
2022-10-31T15:38:31.675Z,101373.66
2022-10-31T15:41:05.900Z,101376.06
2022-10-31T15:43:45.700Z,101372.72
2022-10-31T15:46:12.611Z,101377.13
2022-10-31T15:48:41.441Z,101380.03
2022-10-31T15:51:08.088Z,101380.56
2022-10-31T15:53:54.905Z,101368.78
2022-10-31T15:56:25.065Z,101382.84
2022-10-31T15:58:54.071Z,101377.00
2022-10-31T16:01:32.966Z,101372.16
2022-10-31T16:04:01.477Z,101374.91
2022-10-31T16:06:35.151Z,101373.84
2022-10-31T16:09:02.260Z,101374.25
2022-10-31T16:11:36.567Z,101375.25
2022-10-31T16:14:18.457Z,101374.78
2022-10-31T16:16:53.393Z,101372.38
2022-10-31T16:19:35.593Z,101370.50
2022-10-31T16:25:07.183Z,101370.41
2022-10-31T16:27:35.563Z,101370.50
2022-10-31T16:30:05.296Z,101361.41
2022-10-31T16:32:38.848Z,101359.59
2022-10-31T16:35:11.565Z,101355.31
2022-10-31T16:37:39.212Z,101357.31
2022-10-31T16:40:06.339Z,101349.00
2022-10-31T16:42:33.166Z,101350.59
2022-10-31T16:45:00.666Z,101339.97
2022-10-31T16:47:28.582Z,101347.94
2022-10-31T16:49:55.442Z,101348.78
2022-10-31T16:52:22.171Z,101347.72
2022-10-31T16:54:48.693Z,101341.78
2022-10-31T16:57:24.866Z,101358.50
2022-10-31T16:59:54.779Z,101354.16
2022-10-31T17:02:21.804Z,101367.47
2022-10-31T17:04:50.853Z,101371.25
2022-10-31T17:07:20.480Z,101369.72
2022-10-31T17:09:47.014Z,101369.28
2022-10-31T17:12:20.226Z,101363.78
2022-10-31T17:14:51.808Z,101366.22
2022-10-31T17:17:18.669Z,101367.50
2022-10-31T17:19:45.299Z,101368.03
2022-10-31T17:22:14.190Z,101368.84
2022-10-31T17:24:40.959Z,101375.56
2022-10-31T17:27:07.701Z,101380.94
2022-10-31T17:29:35.340Z,101381.72
2022-10-31T17:32:03.827Z,101379.63
2022-10-31T17:34:30.610Z,101371.94
2022-10-31T17:36:57.218Z,101378.88
2022-10-31T17:39:23.797Z,101377.38
2022-10-31T17:41:51.799Z,101374.88
2022-10-31T17:44:18.847Z,101377.81
2022-10-31T17:46:45.503Z,101374.88
2022-10-31T17:49:12.750Z,101380.13
2022-10-31T17:51:39.274Z,101379.69
2022-10-31T17:54:10.108Z,101371.91
2022-10-31T17:56:36.716Z,101388.16
2022-10-31T17:59:03.427Z,101384.50
2022-10-31T18:01:30.204Z,101388.06
2022-10-31T18:03:57.525Z,101382.94
2022-10-31T18:06:24.131Z,101383.69
2022-10-31T18:08:50.784Z,101384.31
2022-10-31T18:11:21.125Z,101380.56
2022-10-31T18:13:47.841Z,101376.25
2022-10-31T18:16:17.333Z,101363.47
2022-10-31T18:18:43.965Z,101379.25
2022-10-31T18:21:10.666Z,101380.50
2022-10-31T18:23:37.308Z,101377.63
2022-10-31T18:26:04.039Z,101379.91
2022-10-31T18:28:30.591Z,101371.03
2022-10-31T18:31:00.437Z,101380.59
2022-10-31T18:33:27.476Z,101365.25
2022-10-31T18:35:54.015Z,101376.28
2022-10-31T18:38:20.619Z,101369.75
2022-10-31T18:40:47.289Z,101364.31
2022-10-31T18:43:15.551Z,101361.13
2022-10-31T18:45:47.154Z,101368.00
2022-10-31T18:48:17.363Z,101367.53
2022-10-31T18:50:44.587Z,101362.72
2022-10-31T18:53:11.301Z,101369.03
2022-10-31T18:55:45.699Z,101364.72
2022-10-31T18:58:16.206Z,101370.19
2022-10-31T19:00:43.229Z,101377.84
2022-10-31T19:03:09.815Z,101361.22
2022-10-31T19:05:36.359Z,101363.75
2022-10-31T19:08:03.396Z,101360.09
2022-10-31T19:10:30.196Z,101357.38
2022-10-31T19:12:56.900Z,101358.06
2022-10-31T19:15:23.461Z,101350.47
2022-10-31T19:17:50.019Z,101348.50
2022-10-31T19:20:16.749Z,101347.84
2022-10-31T19:22:43.557Z,101355.63
2022-10-31T19:25:10.976Z,101355.81
2022-10-31T19:27:38.267Z,101349.75
2022-10-31T19:30:06.364Z,101356.22
2022-10-31T19:32:33.028Z,101359.69
2022-10-31T19:34:59.665Z,101358.69
2022-10-31T19:37:26.315Z,101351.13
2022-10-31T19:39:52.905Z,101362.91
2022-10-31T19:42:19.510Z,101358.44
2022-10-31T19:44:46.102Z,101355.09
2022-10-31T19:47:12.720Z,101347.25
2022-10-31T19:49:39.319Z,101345.44
2022-10-31T19:52:05.848Z,101354.38
2022-10-31T19:54:32.508Z,101351.34
2022-10-31T19:56:59.165Z,101337.78
2022-10-31T19:59:26.269Z,101334.94
2022-10-31T20:01:53.070Z,101327.03
2022-10-31T20:04:19.699Z,101341.16
2022-10-31T20:06:46.400Z,101332.56
2022-10-31T20:09:14.318Z,101326.28
2022-10-31T20:11:43.144Z,101334.50
2022-10-31T20:14:13.727Z,101333.75
2022-10-31T20:16:41.005Z,101322.09
2022-10-31T20:19:08.041Z,101330.59
2022-10-31T20:21:39.778Z,101330.28
2022-10-31T20:24:08.907Z,101326.81
2022-10-31T20:26:36.045Z,101330.28
2022-10-31T20:29:03.694Z,101325.97
2022-10-31T20:31:33.833Z,101325.53
2022-10-31T20:34:00.434Z,101325.94
2022-10-31T20:36:29.460Z,101328.94
2022-10-31T20:38:56.499Z,101327.69
2022-10-31T20:41:23.216Z,101330.38
2022-10-31T20:43:49.776Z,101334.03
2022-10-31T20:46:18.960Z,101328.69
2022-10-31T20:48:46.424Z,101335.34
2022-10-31T20:51:18.602Z,101332.72
2022-10-31T20:53:45.663Z,101335.09
2022-10-31T20:56:14.732Z,101335.66
2022-10-31T21:11:23.864Z,101321.50
2022-10-31T21:13:51.312Z,101321.59
2022-10-31T21:16:35.672Z,101318.34
2022-10-31T21:19:03.944Z,101310.22
2022-10-31T21:21:33.588Z,101305.41
2022-10-31T21:24:06.527Z,101294.75
2022-10-31T21:26:36.360Z,101295.13
2022-10-31T21:29:04.880Z,101286.47
2022-10-31T21:31:31.625Z,101284.50
2022-10-31T21:33:58.435Z,101275.53
2022-10-31T21:36:26.174Z,101281.88
2022-10-31T21:38:54.162Z,101291.50
2022-10-31T21:41:21.821Z,101300.00
2022-10-31T21:43:50.272Z,101303.44
2022-10-31T21:46:18.225Z,101297.56
2022-10-31T21:48:45.531Z,101297.88
2022-10-31T21:51:29.726Z,101288.97
2022-10-31T21:54:16.773Z,101289.09
2022-10-31T21:56:44.146Z,101282.25
2022-10-31T21:59:11.560Z,101290.09
2022-10-31T22:01:38.388Z,101281.69
2022-10-31T22:04:05.894Z,101282.44
2022-10-31T22:06:32.821Z,101279.81
2022-10-31T22:09:00.904Z,101282.19
2022-10-31T22:11:28.485Z,101286.56
2022-10-31T22:13:55.922Z,101287.22
2022-10-31T22:16:24.069Z,101279.69
2022-10-31T22:18:55.541Z,101276.25
2022-10-31T22:21:24.207Z,101278.88
2022-10-31T22:24:01.949Z,101274.59
2022-10-31T22:26:32.188Z,101283.66
2022-10-31T22:29:02.319Z,101281.06
2022-10-31T22:31:30.959Z,101262.63
2022-10-31T22:33:57.977Z,101274.53
2022-10-31T22:36:26.896Z,101267.59
2022-10-31T22:38:53.860Z,101258.16
2022-10-31T22:41:32.047Z,101259.66
2022-10-31T22:43:59.516Z,101255.41
2022-10-31T22:46:28.774Z,101254.97
2022-10-31T22:48:58.554Z,101252.81
2022-10-31T22:51:30.348Z,101248.81
2022-10-31T22:53:57.151Z,101247.25
2022-10-31T22:56:26.669Z,101239.22
2022-10-31T22:58:53.964Z,101235.56
2022-10-31T23:01:23.928Z,101231.94
2022-10-31T23:03:51.290Z,101227.16
2022-10-31T23:06:20.401Z,101220.25
2022-10-31T23:08:48.446Z,101225.66
2022-10-31T23:11:25.063Z,101221.56
2022-10-31T23:14:08.844Z,101216.44
2022-10-31T23:16:52.952Z,101206.81
2022-10-31T23:19:22.030Z,101203.38
2022-10-31T23:21:57.307Z,101209.84
2022-10-31T23:24:37.490Z,101207.56
2022-10-31T23:27:14.823Z,101207.28
2022-10-31T23:29:41.560Z,101193.75
2022-10-31T23:32:14.331Z,101188.69
2022-10-31T23:34:40.990Z,101177.22
2022-10-31T23:39:35.221Z,101174.94
2022-10-31T23:42:02.142Z,101175.25
2022-10-31T23:44:28.906Z,101169.06
2022-10-31T23:46:55.514Z,101172.88
2022-10-31T23:49:22.144Z,101168.94
2022-10-31T23:51:48.685Z,101170.31
2022-10-31T23:54:15.516Z,101163.84
2022-10-31T23:56:42.988Z,101161.78
2022-10-31T23:59:09.707Z,101167.94
